Awajishima — JD4140 — position and weather

sailwx.info

Track history (hours):
 
Tides and Currents Weather Stations Pressure Air Temp Water Temp Dewpoint Dewpoint Depression Visibility Wind Speed Wind Dir Waves Ship Positions

Awajishima

Last reported at 2018-Jun-08 08:54 UTC. Time now 2018-Jun-21 06:35 UTC.
Position N 35°07' E 139°41'.
Warning: this ship's position is 12 days out of date.

Length 105 m; draft 5.1 m.

Type: Tanker. MMSI: 431009313.

Date/timePositionNaut miles runAvg speedWind from/ knotsBaromVisibWave heightAir tempDewpointWater temp
2018-Jun-08 08:54N 35°07' E 139°41'512.1
2018-Jun-08 08:28N 35°11' E 139°45'511.4
2018-Jun-08 08:00N 35°16' E 139°45'612.6
2018-Jun-08 07:31N 35°22' E 139°42'611.8
2018-Jun-08 07:01N 35°27' E 139°47'612.2
2018-Jun-08 06:30N 35°30' E 139°53'7 0.8
2018-Jun-07 22:30N 35°30' E 140°01'1 2.5
2018-Jun-07 21:59N 35°31' E 140°00'6 0.4
2018-Jun-07 04:44N 35°35' E 140°06'311.6
2018-Jun-07 04:27N 35°35' E 140°02'614.2
2018-Jun-07 04:00N 35°30' E 139°57'2 2.1
2018-Jun-07 03:01N 35°29' E 139°55'0 0.0
2018-Jun-07 02:55N 35°29' E 139°55'0 0.0
2018-Jun-07 02:13N 35°29' E 139°55'0 0.0
2018-Jun-06 22:55N 35°29' E 139°55'0 0.0
2018-Jun-06 22:25N 35°29' E 139°55'0 0.0
2018-Jun-06 21:43N 35°29' E 139°55'0 0.0
2018-Jun-06 19:43N 35°29' E 139°55'0 0.1
2018-Jun-06 16:35N 35°29' E 139°55'1 9.3
2018-Jun-06 16:28N 35°29' E 139°56'3 0.4
2018-Jun-06 07:11N 35°31' E 140°00'1 7.3
2018-Jun-06 07:00N 35°30' E 139°59'3 0.3
2018-Jun-05 19:44N 35°29' E 139°55'0 0.0
2018-Jun-05 13:08N 35°29' E 139°55'0 0.0
2018-Jun-05 09:17N 35°29' E 139°55'0 0.0
2018-Jun-05 07:32N 35°29' E 139°55'0 0.0
2018-Jun-05 07:17N 35°29' E 139°55'0 0.1
2018-Jun-05 06:50N 35°29' E 139°55'0 0.1
2018-Jun-05 05:53N 35°29' E 139°55'0 0.1
2018-Jun-05 05:08N 35°29' E 139°55'0 0.0
2018-Jun-05 04:53N 35°29' E 139°55'0 0.0
2018-Jun-05 04:29N 35°29' E 139°55'0 0.0
2018-Jun-05 03:59N 35°29' E 139°55'0 0.2
2018-Jun-05 03:24N 35°29' E 139°55'4 9.8
2018-Jun-05 03:00N 35°28' E 139°51'612.7
2018-Jun-05 02:30N 35°23' E 139°46'611.4
2018-Jun-05 02:00N 35°17' E 139°45'611.9
2018-Jun-05 01:30N 35°11' E 139°46'  
Track history (hours):
 
Tides and Currents Weather Stations Pressure Air Temp Water Temp Dewpoint Dewpoint Depression Visibility Wind Speed Wind Dir Waves Ship Positions

Awajishima

Last reported at 2018-Jun-08 08:54 UTC. Time now 2018-Jun-21 06:35 UTC.
Position N 35°07' E 139°41'.
Warning: this ship's position is 12 days out of date.

Length 105 m; draft 5.1 m.

Type: Tanker. MMSI: 431009313.

Date/timePositionNaut miles runAvg speedWind from/ knotsBaromVisibWave heightAir tempDewpointWater temp
2018-Jun-08 08:54N 35°07' E 139°41'512.1
2018-Jun-08 08:28N 35°11' E 139°45'511.4
2018-Jun-08 08:00N 35°16' E 139°45'612.6
2018-Jun-08 07:31N 35°22' E 139°42'611.8
2018-Jun-08 07:01N 35°27' E 139°47'612.2
2018-Jun-08 06:30N 35°30' E 139°53'7 0.8
2018-Jun-07 22:30N 35°30' E 140°01'1 2.5
2018-Jun-07 21:59N 35°31' E 140°00'6 0.4
2018-Jun-07 04:44N 35°35' E 140°06'311.6
2018-Jun-07 04:27N 35°35' E 140°02'614.2
2018-Jun-07 04:00N 35°30' E 139°57'2 2.1
2018-Jun-07 03:01N 35°29' E 139°55'0 0.0
2018-Jun-07 02:55N 35°29' E 139°55'0 0.0
2018-Jun-07 02:13N 35°29' E 139°55'0 0.0
2018-Jun-06 22:55N 35°29' E 139°55'0 0.0
2018-Jun-06 22:25N 35°29' E 139°55'0 0.0
2018-Jun-06 21:43N 35°29' E 139°55'0 0.0
2018-Jun-06 19:43N 35°29' E 139°55'0 0.1
2018-Jun-06 16:35N 35°29' E 139°55'1 9.3
2018-Jun-06 16:28N 35°29' E 139°56'3 0.4
2018-Jun-06 07:11N 35°31' E 140°00'1 7.3
2018-Jun-06 07:00N 35°30' E 139°59'3 0.3
2018-Jun-05 19:44N 35°29' E 139°55'0 0.0
2018-Jun-05 13:08N 35°29' E 139°55'0 0.0
2018-Jun-05 09:17N 35°29' E 139°55'0 0.0
2018-Jun-05 07:32N 35°29' E 139°55'0 0.0
2018-Jun-05 07:17N 35°29' E 139°55'0 0.1
2018-Jun-05 06:50N 35°29' E 139°55'0 0.1
2018-Jun-05 05:53N 35°29' E 139°55'0 0.1
2018-Jun-05 05:08N 35°29' E 139°55'0 0.0
2018-Jun-05 04:53N 35°29' E 139°55'0 0.0
2018-Jun-05 04:29N 35°29' E 139°55'0 0.0
2018-Jun-05 03:59N 35°29' E 139°55'0 0.2
2018-Jun-05 03:24N 35°29' E 139°55'4 9.8
2018-Jun-05 03:00N 35°28' E 139°51'612.7
2018-Jun-05 02:30N 35°23' E 139°46'611.4
2018-Jun-05 02:00N 35°17' E 139°45'611.9
2018-Jun-05 01:30N 35°11' E 139°46'  

Dump ship's entire track history